createdAt,value
2017-04-29T00:00:58.625Z,967.29
2017-04-29T00:02:07.386Z,967.31
2017-04-29T00:03:16.162Z,967.28
2017-04-29T00:04:25.899Z,967.26
2017-04-29T00:05:34.994Z,967.28
2017-04-29T00:06:43.771Z,967.27
2017-04-29T00:07:52.813Z,967.24
2017-04-29T00:09:02.196Z,967.25
2017-04-29T00:10:11.542Z,967.29
2017-04-29T00:11:20.329Z,967.28
2017-04-29T00:12:29.107Z,967.29
2017-04-29T00:13:38.500Z,967.27
2017-04-29T00:14:48.214Z,967.3
2017-04-29T00:15:57.301Z,967.32
2017-04-29T00:17:06.083Z,967.27
2017-04-29T00:18:15.151Z,967.27
2017-04-29T00:19:24.793Z,967.31
2017-04-29T00:20:34.191Z,967.35
2017-04-29T00:21:42.980Z,967.33
2017-04-29T00:22:52.068Z,967.32
2017-04-29T00:24:01.145Z,967.34
2017-04-29T00:25:10.187Z,967.33
2017-04-29T00:26:18.958Z,967.35
2017-04-29T00:27:27.981Z,967.29
2017-04-29T00:28:37.618Z,967.33
2017-04-29T00:29:47.012Z,967.28
2017-04-29T00:30:56.109Z,967.29
2017-04-29T00:32:05.187Z,967.29
2017-04-29T00:33:13.894Z,967.29
2017-04-29T00:34:23.276Z,967.25
2017-04-29T00:35:32.655Z,967.27
2017-04-29T00:36:42.082Z,967.27
2017-04-29T00:37:50.861Z,967.33
2017-04-29T00:39:00.284Z,967.31
2017-04-29T00:40:09.379Z,967.3
2017-04-29T00:41:18.470Z,967.28
2017-04-29T00:42:27.547Z,967.3
2017-04-29T00:43:36.274Z,967.3
2017-04-29T00:44:45.003Z,967.3
2017-04-29T00:45:54.402Z,967.24
2017-04-29T00:47:03.175Z,967.31
2017-04-29T00:48:11.967Z,967.31
2017-04-29T00:49:21.058Z,967.29
2017-04-29T00:50:30.765Z,967.29
2017-04-29T00:51:40.464Z,967.33
2017-04-29T00:52:49.879Z,967.32
2017-04-29T00:53:59.295Z,967.33
2017-04-29T00:55:09.007Z,967.32
2017-04-29T00:56:17.776Z,967.27
2017-04-29T00:57:26.499Z,967.32
2017-04-29T00:58:35.911Z,967.3
2017-04-29T00:59:45.610Z,967.29
2017-04-29T01:00:55.305Z,967.27
2017-04-29T01:02:04.684Z,967.27
2017-04-29T01:03:13.774Z,967.22
2017-04-29T01:04:23.484Z,967.22
2017-04-29T01:05:32.894Z,967.2
2017-04-29T01:06:41.672Z,967.19
2017-04-29T01:07:50.713Z,967.2
2017-04-29T01:09:00.109Z,967.22
2017-04-29T01:10:09.497Z,967.18
2017-04-29T01:11:18.291Z,967.15
2017-04-29T01:12:27.686Z,967.16
2017-04-29T01:13:36.454Z,967.18
2017-04-29T01:14:45.485Z,967.16
2017-04-29T01:15:54.263Z,967.19
2017-04-29T01:17:03.654Z,967.16
2017-04-29T01:18:12.432Z,967.16
2017-04-29T01:19:21.512Z,967.22
2017-04-29T01:20:30.246Z,967.23
2017-04-29T01:21:39.029Z,967.25
2017-04-29T01:22:48.323Z,967.27
2017-04-29T01:23:57.412Z,967.29
2017-04-29T01:25:06.493Z,967.33
2017-04-29T01:26:15.217Z,967.3
2017-04-29T01:27:23.957Z,967.3
2017-04-29T01:28:32.950Z,967.3
2017-04-29T01:29:42.343Z,967.37
2017-04-29T01:30:51.431Z,967.35
2017-04-29T01:32:00.527Z,967.4
2017-04-29T01:33:09.927Z,967.39
2017-04-29T01:34:18.711Z,967.4
2017-04-29T01:35:28.099Z,967.43
2017-04-29T01:36:37.183Z,967.38
2017-04-29T01:37:46.568Z,967.34
2017-04-29T01:38:55.659Z,967.43
2017-04-29T01:40:04.446Z,967.43
2017-04-29T01:41:13.523Z,967.44
2017-04-29T01:42:22.860Z,967.49
2017-04-29T01:43:31.648Z,967.51
2017-04-29T01:44:41.053Z,967.53
2017-04-29T01:45:50.148Z,967.53
2017-04-29T01:47:00.100Z,967.54
2017-04-29T01:48:08.883Z,967.51
2017-04-29T01:49:18.585Z,967.56
2017-04-29T01:50:27.909Z,967.59
2017-04-29T01:51:36.950Z,967.6
2017-04-29T01:52:45.731Z,967.58
2017-04-29T01:53:54.819Z,967.56
2017-04-29T01:55:04.819Z,967.6
2017-04-29T01:56:13.905Z,967.57
2017-04-29T01:57:22.683Z,967.61
2017-04-29T01:58:32.085Z,967.59
2017-04-29T01:59:41.470Z,967.57
2017-04-29T02:00:50.241Z,967.57
2017-04-29T02:01:58.970Z,967.59
2017-04-29T02:03:07.742Z,967.55
2017-04-29T02:04:17.389Z,967.59
2017-04-29T02:05:26.497Z,967.58
2017-04-29T02:06:35.283Z,967.57
2017-04-29T02:07:44.972Z,967.65
2017-04-29T02:08:54.038Z,967.64
2017-04-29T02:10:03.385Z,967.66
2017-04-29T02:11:12.781Z,967.68
2017-04-29T02:12:21.878Z,967.65
2017-04-29T02:13:30.929Z,967.7
2017-04-29T02:14:40.329Z,967.71
2017-04-29T02:15:49.727Z,967.73
2017-04-29T02:16:59.116Z,967.74
2017-04-29T02:18:08.212Z,967.77
2017-04-29T02:19:17.590Z,967.7
2017-04-29T02:20:26.984Z,967.73
2017-04-29T02:21:35.764Z,967.73
2017-04-29T02:22:44.541Z,967.75
2017-04-29T02:23:53.894Z,967.78
2017-04-29T02:25:02.909Z,967.76
2017-04-29T02:26:11.992Z,967.78
2017-04-29T02:27:20.767Z,967.81
2017-04-29T02:28:30.086Z,967.81
2017-04-29T02:29:39.461Z,967.81
2017-04-29T02:30:48.243Z,967.82
2017-04-29T02:31:57.018Z,967.76
2017-04-29T02:33:06.704Z,967.74
2017-04-29T02:34:15.765Z,967.78
2017-04-29T02:35:25.070Z,967.74
2017-04-29T02:36:34.389Z,967.76
2017-04-29T02:37:43.154Z,967.73
2017-04-29T02:38:52.233Z,967.73
2017-04-29T02:40:01.301Z,967.72
2017-04-29T02:41:10.046Z,967.68
2017-04-29T02:42:19.428Z,967.71
2017-04-29T02:43:28.186Z,967.72
2017-04-29T02:44:37.492Z,967.76
2017-04-29T02:45:46.834Z,967.71
2017-04-29T02:46:55.910Z,967.77
2017-04-29T02:48:04.976Z,967.75
2017-04-29T02:49:14.350Z,967.73
2017-04-29T02:50:23.733Z,967.73
2017-04-29T02:51:32.788Z,967.75
2017-04-29T02:52:41.486Z,967.76
2017-04-29T02:53:50.507Z,967.76
2017-04-29T02:54:59.885Z,967.81
2017-04-29T02:56:08.909Z,967.83
2017-04-29T02:57:18.601Z,967.81
2017-04-29T02:58:27.683Z,967.81
2017-04-29T02:59:38.177Z,967.8
2017-04-29T03:00:47.558Z,967.81
2017-04-29T03:01:56.634Z,967.81
2017-04-29T03:03:06.008Z,967.89
2017-04-29T03:04:15.081Z,967.81
2017-04-29T03:05:24.153Z,967.83
2017-04-29T03:06:33.172Z,967.84
2017-04-29T03:07:42.547Z,967.85
2017-04-29T03:08:51.922Z,967.84
2017-04-29T03:10:01.296Z,967.84
2017-04-29T03:11:10.006Z,967.83
2017-04-29T03:12:18.781Z,967.84
2017-04-29T03:13:27.551Z,967.82
2017-04-29T03:14:36.624Z,967.83
2017-04-29T03:15:45.691Z,967.85
2017-04-29T03:16:54.774Z,967.85
2017-04-29T03:18:03.857Z,967.84
2017-04-29T03:19:13.242Z,967.86
2017-04-29T03:20:22.624Z,967.88
2017-04-29T03:21:31.700Z,967.85
2017-04-29T03:22:40.781Z,967.87
2017-04-29T03:23:50.770Z,967.92
2017-04-29T03:25:00.470Z,967.9
2017-04-29T03:26:09.866Z,967.89
2017-04-29T03:27:19.251Z,967.9
2017-04-29T03:28:28.002Z,967.9
2017-04-29T03:29:36.720Z,967.89
2017-04-29T03:30:45.491Z,967.89
2017-04-29T03:31:54.850Z,967.87
2017-04-29T03:33:03.906Z,967.91
2017-04-29T03:34:13.267Z,967.85
2017-04-29T03:35:22.652Z,967.89
2017-04-29T03:36:32.006Z,967.83
2017-04-29T03:37:41.323Z,967.87
2017-04-29T03:38:50.389Z,967.83
2017-04-29T03:39:59.767Z,967.88
2017-04-29T03:41:08.837Z,967.85
2017-04-29T03:42:17.849Z,967.86
2017-04-29T03:43:27.229Z,967.87
2017-04-29T03:44:36.913Z,967.85
2017-04-29T03:45:45.975Z,967.86
2017-04-29T03:46:55.037Z,967.82
2017-04-29T03:48:04.725Z,967.85
2017-04-29T03:49:13.801Z,967.86
2017-04-29T03:50:22.875Z,967.83
2017-04-29T03:51:31.935Z,967.86
2017-04-29T03:52:40.638Z,967.88
2017-04-29T03:53:50.323Z,967.83
2017-04-29T03:54:59.389Z,967.87
2017-04-29T03:56:09.012Z,967.89
2017-04-29T03:57:18.391Z,967.89
2017-04-29T03:58:27.160Z,967.94
2017-04-29T03:59:35.924Z,967.91
2017-04-29T04:00:45.004Z,967.93
2017-04-29T04:01:54.384Z,967.94
2017-04-29T04:03:04.066Z,967.93
2017-04-29T04:04:13.723Z,967.96
2017-04-29T04:05:22.733Z,967.98
2017-04-29T04:06:32.120Z,967.99
2017-04-29T04:07:40.874Z,967.99
2017-04-29T04:08:50.491Z,967.98
2017-04-29T04:09:59.518Z,968.02
2017-04-29T04:11:09.507Z,968.02
2017-04-29T04:12:18.584Z,968.01
2017-04-29T04:13:27.341Z,968.03
2017-04-29T04:14:36.727Z,968.04
2017-04-29T04:15:46.133Z,968.06
2017-04-29T04:16:55.498Z,968.08
2017-04-29T04:18:04.515Z,968.05
2017-04-29T04:19:13.583Z,968.06
2017-04-29T04:20:22.952Z,968.04
2017-04-29T04:21:32.642Z,968.06
2017-04-29T04:22:42.018Z,968.04
2017-04-29T04:23:51.094Z,968.05
2017-04-29T04:25:00.482Z,968.04
2017-04-29T04:26:09.863Z,968.06
2017-04-29T04:27:18.932Z,968.05
2017-04-29T04:28:27.647Z,968.08
2017-04-29T04:29:37.026Z,968.06
2017-04-29T04:30:46.726Z,968.1
2017-04-29T04:31:56.401Z,968.06
2017-04-29T04:33:05.709Z,968.1
2017-04-29T04:34:14.734Z,968.09
2017-04-29T04:35:23.502Z,968.06
2017-04-29T04:36:32.582Z,968.07
2017-04-29T04:37:41.354Z,968.01
2017-04-29T04:38:50.421Z,968.06
2017-04-29T04:39:59.500Z,968.06
2017-04-29T04:41:08.779Z,968.06
2017-04-29T04:42:17.852Z,968.09
2017-04-29T04:43:26.909Z,968.03
2017-04-29T04:44:36.234Z,968.04
2017-04-29T04:45:45.294Z,968.01
2017-04-29T04:46:53.982Z,968.07
2017-04-29T04:48:03.038Z,968.05
2017-04-29T04:49:11.820Z,968.05
2017-04-29T04:50:21.206Z,968.07
2017-04-29T04:51:30.567Z,968.04
2017-04-29T04:52:39.866Z,968.08
2017-04-29T04:53:49.192Z,968.09
2017-04-29T04:54:58.272Z,968.06
2017-04-29T04:56:07.031Z,968.04
2017-04-29T04:57:16.716Z,968.04
2017-04-29T04:58:26.101Z,968.1
2017-04-29T04:59:35.769Z,968.08
2017-04-29T05:00:45.100Z,968.1
2017-04-29T05:01:54.185Z,968.11
2017-04-29T05:03:03.259Z,968.1
2017-04-29T05:04:12.018Z,968.1
2017-04-29T05:05:21.337Z,968.12
2017-04-29T05:06:31.021Z,968.11
2017-04-29T05:07:40.405Z,968.16
2017-04-29T05:08:49.487Z,968.12
2017-04-29T05:09:58.860Z,968.14
2017-04-29T05:11:07.850Z,968.17
2017-04-29T05:12:16.857Z,968.21
2017-04-29T05:13:25.883Z,968.21
2017-04-29T05:14:35.271Z,968.16
2017-04-29T05:15:44.941Z,968.19
2017-04-29T05:16:53.710Z,968.21
2017-04-29T05:18:02.478Z,968.18
2017-04-29T05:19:11.240Z,968.21
2017-04-29T05:20:20.563Z,968.21
2017-04-29T05:21:29.327Z,968.25
2017-04-29T05:22:38.095Z,968.23
2017-04-29T05:23:47.460Z,968.21
2017-04-29T05:24:56.791Z,968.26
2017-04-29T05:26:05.867Z,968.25
2017-04-29T05:27:14.645Z,968.21
2017-04-29T05:28:23.705Z,968.26
2017-04-29T05:29:33.047Z,968.25
2017-04-29T05:30:42.471Z,968.23
2017-04-29T05:31:51.851Z,968.22
2017-04-29T05:33:00.606Z,968.25
2017-04-29T05:34:09.611Z,968.25
2017-04-29T05:35:18.634Z,968.26
2017-04-29T05:36:28.000Z,968.28
2017-04-29T05:37:37.070Z,968.26
2017-04-29T05:38:46.749Z,968.31
2017-04-29T05:39:55.825Z,968.29
2017-04-29T05:41:04.893Z,968.29
2017-04-29T05:42:13.963Z,968.31
2017-04-29T05:43:23.046Z,968.28
2017-04-29T05:44:32.430Z,968.26
2017-04-29T05:45:41.187Z,968.27
2017-04-29T05:46:49.959Z,968.29
2017-04-29T05:47:59.031Z,968.25
2017-04-29T05:49:08.103Z,968.27
2017-04-29T05:50:17.789Z,968.25
2017-04-29T05:51:26.541Z,968.33
2017-04-29T05:52:35.460Z,968.31
2017-04-29T05:53:44.568Z,968.3
2017-04-29T05:54:54.249Z,968.33
2017-04-29T05:56:03.613Z,968.31
2017-04-29T05:57:12.334Z,968.35
2017-04-29T05:58:21.722Z,968.32
2017-04-29T05:59:30.797Z,968.33
2017-04-29T06:00:40.159Z,968.36
2017-04-29T06:01:49.175Z,968.34
2017-04-29T06:02:58.549Z,968.37
2017-04-29T06:04:07.619Z,968.39
2017-04-29T06:05:16.689Z,968.42
2017-04-29T06:06:26.014Z,968.43
2017-04-29T06:07:34.778Z,968.43
2017-04-29T06:08:44.105Z,968.46
2017-04-29T06:09:53.780Z,968.48
2017-04-29T06:11:03.411Z,968.46
2017-04-29T06:12:12.184Z,968.49
2017-04-29T06:13:21.263Z,968.48
2017-04-29T06:14:30.658Z,968.48
2017-04-29T06:15:40.039Z,968.52
2017-04-29T06:16:49.419Z,968.54
2017-04-29T06:17:58.198Z,968.53
2017-04-29T06:19:06.964Z,968.54
2017-04-29T06:20:15.721Z,968.52
2017-04-29T06:21:24.433Z,968.54
2017-04-29T06:22:33.508Z,968.54
2017-04-29T06:23:42.264Z,968.55
2017-04-29T06:24:51.638Z,968.56
2017-04-29T06:26:01.020Z,968.6
2017-04-29T06:27:10.101Z,968.56
2017-04-29T06:28:19.176Z,968.55
2017-04-29T06:29:27.938Z,968.58
2017-04-29T06:30:37.617Z,968.56
2017-04-29T06:31:46.621Z,968.55
2017-04-29T06:32:55.635Z,968.56
2017-04-29T06:34:05.011Z,968.6
2017-04-29T06:35:14.396Z,968.6
2017-04-29T06:36:23.161Z,968.59
2017-04-29T06:37:32.235Z,968.6
2017-04-29T06:38:41.314Z,968.61
2017-04-29T06:39:50.622Z,968.63
2017-04-29T06:40:59.380Z,968.64
2017-04-29T06:42:08.141Z,968.66
2017-04-29T06:43:17.213Z,968.63
2017-04-29T06:44:26.606Z,968.64
2017-04-29T06:45:35.981Z,968.65
2017-04-29T06:46:45.044Z,968.62
2017-04-29T06:47:54.120Z,968.69
2017-04-29T06:49:03.798Z,968.63
2017-04-29T06:50:13.487Z,968.63
2017-04-29T06:51:22.255Z,968.64
2017-04-29T06:52:31.067Z,968.66
2017-04-29T06:53:40.461Z,968.7
2017-04-29T06:54:49.838Z,968.68
2017-04-29T06:55:59.213Z,968.67
2017-04-29T06:57:08.279Z,968.7
2017-04-29T06:58:17.663Z,968.7
2017-04-29T06:59:26.408Z,968.73
2017-04-29T07:00:35.767Z,968.73
2017-04-29T07:01:45.088Z,968.71
2017-04-29T07:02:53.856Z,968.76
2017-04-29T07:04:03.228Z,968.7
2017-04-29T07:05:12.614Z,968.72
2017-04-29T07:06:21.371Z,968.71
2017-04-29T07:07:30.151Z,968.75
2017-04-29T07:08:39.217Z,968.75
2017-04-29T07:09:48.902Z,968.77
2017-04-29T07:10:58.169Z,968.8
2017-04-29T07:12:06.941Z,968.79
2017-04-29T07:13:15.717Z,968.77
2017-04-29T07:14:24.793Z,968.77
2017-04-29T07:15:33.561Z,968.75
2017-04-29T07:16:42.633Z,968.74
2017-04-29T07:17:51.715Z,968.76
2017-04-29T07:19:00.784Z,968.72
2017-04-29T07:20:10.174Z,968.75
2017-04-29T07:21:18.948Z,968.75
2017-04-29T07:22:28.014Z,968.74
2017-04-29T07:23:36.781Z,968.75
2017-04-29T07:24:45.859Z,968.74
2017-04-29T07:25:55.247Z,968.78
2017-04-29T07:27:04.634Z,968.78
2017-04-29T07:28:13.707Z,968.74
2017-04-29T07:29:22.798Z,968.76
2017-04-29T07:30:32.194Z,968.77
2017-04-29T07:31:41.243Z,968.81
2017-04-29T07:32:50.251Z,968.82
2017-04-29T07:33:59.314Z,968.8
2017-04-29T07:35:08.338Z,968.83
2017-04-29T07:36:17.114Z,968.85
2017-04-29T07:37:25.879Z,968.84
2017-04-29T07:38:34.961Z,968.84
2017-04-29T07:39:44.357Z,968.85
2017-04-29T07:40:54.639Z,968.88
2017-04-29T07:42:03.661Z,968.88
2017-04-29T07:43:12.420Z,968.86
2017-04-29T07:44:21.443Z,968.87
2017-04-29T07:45:30.806Z,968.87
2017-04-29T07:46:40.428Z,968.89
2017-04-29T07:47:49.500Z,968.86
2017-04-29T07:48:59.484Z,968.83
2017-04-29T07:50:08.565Z,968.8
2017-04-29T07:51:17.329Z,968.85
2017-04-29T07:52:26.689Z,968.81
2017-04-29T07:53:35.750Z,968.82
2017-04-29T07:54:45.438Z,968.85
2017-04-29T07:55:54.824Z,968.86
2017-04-29T07:57:03.580Z,968.84
2017-04-29T07:58:12.302Z,968.84
2017-04-29T07:59:22.002Z,968.9
2017-04-29T08:00:31.375Z,968.9
2017-04-29T08:01:40.439Z,968.9
2017-04-29T08:02:49.215Z,968.87
2017-04-29T08:03:58.907Z,968.91
2017-04-29T08:05:07.666Z,968.89
2017-04-29T08:06:16.388Z,968.94
2017-04-29T08:07:25.160Z,968.9
2017-04-29T08:08:34.539Z,968.93
2017-04-29T08:09:43.608Z,968.96
2017-04-29T08:10:52.690Z,968.95
2017-04-29T08:12:01.758Z,968.98
2017-04-29T08:13:10.848Z,968.95
2017-04-29T08:14:20.238Z,968.96
2017-04-29T08:15:29.611Z,968.97
2017-04-29T08:16:38.871Z,969.03
2017-04-29T08:17:47.640Z,969
2017-04-29T08:18:57.023Z,969.03
2017-04-29T08:20:05.797Z,969.08
2017-04-29T08:21:14.567Z,969.06
2017-04-29T08:22:23.301Z,969.08
2017-04-29T08:23:32.077Z,969.07
2017-04-29T08:24:41.476Z,969.11
2017-04-29T08:25:50.258Z,969.09
2017-04-29T08:26:59.330Z,969.13
2017-04-29T08:28:08.034Z,969.15
2017-04-29T08:29:17.063Z,969.14
2017-04-29T08:30:26.150Z,969.15
2017-04-29T08:31:35.523Z,969.13
2017-04-29T08:32:44.287Z,969.13
2017-04-29T08:33:54.276Z,969.17
2017-04-29T08:35:03.893Z,969.14
2017-04-29T08:36:12.603Z,969.15
2017-04-29T08:37:21.982Z,969.19
2017-04-29T08:38:30.685Z,969.23
2017-04-29T08:39:39.749Z,969.22
2017-04-29T08:40:48.823Z,969.23
2017-04-29T08:41:57.592Z,969.26
2017-04-29T08:43:06.643Z,969.25
2017-04-29T08:44:16.282Z,969.22
2017-04-29T08:45:25.671Z,969.28
2017-04-29T08:46:34.634Z,969.25
2017-04-29T08:47:43.407Z,969.26
2017-04-29T08:48:52.779Z,969.28
2017-04-29T08:50:01.495Z,969.28
2017-04-29T08:51:10.566Z,969.29
2017-04-29T08:52:19.655Z,969.3
2017-04-29T08:53:28.730Z,969.32
2017-04-29T08:54:37.494Z,969.31
2017-04-29T08:55:46.574Z,969.33
2017-04-29T08:56:55.954Z,969.3
2017-04-29T08:58:05.369Z,969.34
2017-04-29T08:59:14.435Z,969.34
2017-04-29T09:00:23.208Z,969.34
2017-04-29T09:01:32.586Z,969.35
2017-04-29T09:02:41.822Z,969.32
2017-04-29T09:03:50.900Z,969.35
2017-04-29T09:04:59.987Z,969.35
2017-04-29T09:06:08.754Z,969.32
2017-04-29T09:07:17.827Z,969.28
2017-04-29T09:08:26.910Z,969.34
2017-04-29T09:09:36.286Z,969.33
2017-04-29T09:10:45.048Z,969.33
2017-04-29T09:11:53.753Z,969.29
2017-04-29T09:13:02.779Z,969.31
2017-04-29T09:14:12.160Z,969.29
2017-04-29T09:15:21.208Z,969.32
2017-04-29T09:16:29.920Z,969.31
2017-04-29T09:17:38.942Z,969.3
2017-04-29T09:18:48.629Z,969.31
2017-04-29T09:19:58.306Z,969.29
2017-04-29T09:21:07.635Z,969.25
2017-04-29T09:22:16.905Z,969.26
2017-04-29T09:23:25.988Z,969.28
2017-04-29T09:24:35.984Z,969.27
2017-04-29T09:25:45.057Z,969.27
2017-04-29T09:26:54.806Z,969.22
2017-04-29T09:28:03.867Z,969.28
2017-04-29T09:29:12.898Z,969.3
2017-04-29T09:30:21.971Z,969.24
2017-04-29T09:31:31.036Z,969.27
2017-04-29T09:32:39.851Z,969.25
2017-04-29T09:33:49.883Z,969.26
2017-04-29T09:34:59.273Z,969.27
2017-04-29T09:36:08.349Z,969.26
2017-04-29T09:37:18.010Z,969.25
2017-04-29T09:38:27.395Z,969.24
2017-04-29T09:39:36.172Z,969.33
2017-04-29T09:40:45.250Z,969.31
2017-04-29T09:41:54.324Z,969.29
2017-04-29T09:43:03.392Z,969.36
2017-04-29T09:44:12.779Z,969.33
2017-04-29T09:45:21.855Z,969.35
2017-04-29T09:46:30.617Z,969.38
2017-04-29T09:47:39.409Z,969.41
2017-04-29T09:48:48.479Z,969.41
2017-04-29T09:49:58.141Z,969.42
2017-04-29T09:51:06.847Z,969.44
2017-04-29T09:52:15.871Z,969.44
2017-04-29T09:53:24.658Z,969.46
2017-04-29T09:54:33.656Z,969.43
2017-04-29T09:55:42.435Z,969.47
2017-04-29T09:56:51.206Z,969.45
2017-04-29T09:57:59.979Z,969.46
2017-04-29T09:59:09.663Z,969.48
2017-04-29T10:00:18.743Z,969.48
2017-04-29T10:01:27.825Z,969.45
2017-04-29T10:02:36.601Z,969.43
2017-04-29T10:03:45.683Z,969.49
2017-04-29T10:04:54.758Z,969.45
2017-04-29T10:06:04.130Z,969.44
2017-04-29T10:07:12.901Z,969.46
2017-04-29T10:08:21.671Z,969.44
2017-04-29T10:09:31.052Z,969.43
2017-04-29T10:10:40.168Z,969.41
2017-04-29T10:11:49.247Z,969.4
2017-04-29T10:12:58.012Z,969.39
2017-04-29T10:14:07.395Z,969.37
2017-04-29T10:15:16.162Z,969.37
2017-04-29T10:16:25.236Z,969.43
2017-04-29T10:17:34.821Z,969.41
2017-04-29T10:18:44.190Z,969.43
2017-04-29T10:19:53.513Z,969.42
2017-04-29T10:21:02.577Z,969.4
2017-04-29T10:22:11.596Z,969.39
2017-04-29T10:23:20.645Z,969.4
2017-04-29T10:24:30.030Z,969.36
2017-04-29T10:25:39.115Z,969.38
2017-04-29T10:26:47.887Z,969.42
2017-04-29T10:27:56.966Z,969.39
2017-04-29T10:29:06.059Z,969.37
2017-04-29T10:30:15.138Z,969.34
2017-04-29T10:31:23.914Z,969.31
2017-04-29T10:32:32.992Z,969.3
2017-04-29T10:33:41.846Z,969.31
2017-04-29T10:34:51.211Z,969.35
2017-04-29T10:35:59.994Z,969.33
2017-04-29T10:37:08.771Z,969.34
2017-04-29T10:38:17.854Z,969.32
2017-04-29T10:39:27.224Z,969.35
2017-04-29T10:40:36.553Z,969.34
2017-04-29T10:41:45.315Z,969.37
2017-04-29T10:42:54.347Z,969.37
2017-04-29T10:44:03.412Z,969.37
2017-04-29T10:45:12.495Z,969.36
2017-04-29T10:46:21.582Z,969.4
2017-04-29T10:47:30.352Z,969.38
2017-04-29T10:48:40.277Z,969.36
2017-04-29T10:49:49.951Z,969.4
2017-04-29T10:50:59.238Z,969.38
2017-04-29T10:52:08.323Z,969.42
2017-04-29T10:53:17.723Z,969.38
2017-04-29T10:54:27.418Z,969.34
2017-04-29T10:55:37.103Z,969.35
2017-04-29T10:56:45.873Z,969.35
2017-04-29T10:57:54.590Z,969.31
2017-04-29T10:59:03.666Z,969.35
2017-04-29T11:00:13.359Z,969.32
2017-04-29T11:01:22.744Z,969.29
2017-04-29T11:02:31.811Z,969.31
2017-04-29T11:03:41.211Z,969.3
2017-04-29T11:04:50.321Z,969.31
2017-04-29T11:05:59.712Z,969.28
2017-04-29T11:07:08.498Z,969.31
2017-04-29T11:08:17.273Z,969.28
2017-04-29T11:09:26.960Z,969.25
2017-04-29T11:10:36.309Z,969.29
2017-04-29T11:11:45.384Z,969.29
2017-04-29T11:12:54.494Z,969.23
2017-04-29T11:14:03.896Z,969.25
2017-04-29T11:15:12.972Z,969.24
2017-04-29T11:16:22.040Z,969.21
2017-04-29T11:17:30.812Z,969.16
2017-04-29T11:18:39.880Z,969.19
2017-04-29T11:19:48.964Z,969.16
2017-04-29T11:20:58.648Z,969.23
2017-04-29T11:22:07.429Z,969.2
2017-04-29T11:23:17.125Z,969.21
2017-04-29T11:24:26.519Z,969.23
2017-04-29T11:25:35.581Z,969.19
2017-04-29T11:26:44.598Z,969.23
2017-04-29T11:27:53.668Z,969.21
2017-04-29T11:29:03.051Z,969.21
2017-04-29T11:30:12.124Z,969.19
2017-04-29T11:31:21.132Z,969.12
2017-04-29T11:32:29.844Z,969.19
2017-04-29T11:33:38.913Z,969.19
2017-04-29T11:34:47.747Z,969.21
2017-04-29T11:35:57.430Z,969.22
2017-04-29T11:37:06.500Z,969.24
2017-04-29T11:38:15.834Z,969.2
2017-04-29T11:39:24.925Z,969.18
2017-04-29T11:40:34.267Z,969.19
2017-04-29T11:41:43.019Z,969.19
2017-04-29T11:42:51.740Z,969.21
2017-04-29T11:44:01.729Z,969.16
2017-04-29T11:45:10.797Z,969.16
2017-04-29T11:46:19.559Z,969.14
2017-04-29T11:47:28.330Z,969.15
2017-04-29T11:48:37.402Z,969.17
2017-04-29T11:49:46.793Z,969.14
2017-04-29T11:50:55.865Z,969.14
2017-04-29T11:52:04.629Z,969.16
2017-04-29T11:53:13.971Z,969.15
2017-04-29T11:54:22.736Z,969.15
2017-04-29T11:55:32.123Z,969.14
2017-04-29T11:56:41.237Z,969.14
2017-04-29T11:57:50.005Z,969.14
2017-04-29T11:58:59.077Z,969.12
2017-04-29T12:00:08.768Z,969.12
2017-04-29T12:01:17.828Z,969.13
2017-04-29T12:02:26.848Z,969.1
2017-04-29T12:03:36.517Z,969.08
2017-04-29T12:04:45.532Z,969.09
2017-04-29T12:05:54.258Z,969.12
2017-04-29T12:07:03.682Z,969.09
2017-04-29T12:08:12.765Z,969.05
2017-04-29T12:09:21.837Z,969.09
2017-04-29T12:10:31.235Z,969.09
2017-04-29T12:11:41.219Z,969.09
2017-04-29T12:12:49.963Z,969.05
2017-04-29T12:13:59.315Z,969.06
2017-04-29T12:15:08.384Z,969.1
2017-04-29T12:16:17.135Z,969.1
2017-04-29T12:17:26.202Z,969.06
2017-04-29T12:18:35.270Z,969.11
2017-04-29T12:19:45.243Z,969.08
2017-04-29T12:20:54.570Z,969.11
2017-04-29T12:22:03.345Z,969.07
2017-04-29T12:23:12.730Z,969.12
2017-04-29T12:24:22.115Z,969.12
2017-04-29T12:25:31.510Z,969.17
2017-04-29T12:26:40.583Z,969.14
2017-04-29T12:27:49.959Z,969.14
2017-04-29T12:28:59.035Z,969.12
2017-04-29T12:30:08.719Z,969.12
2017-04-29T12:31:17.805Z,969.13
2017-04-29T12:32:26.568Z,969.13
2017-04-29T12:33:35.643Z,969.2
2017-04-29T12:34:45.323Z,969.15
2017-04-29T12:35:54.111Z,969.14
2017-04-29T12:37:03.197Z,969.19
2017-04-29T12:38:12.531Z,969.18
2017-04-29T12:39:21.905Z,969.15
2017-04-29T12:40:31.282Z,969.14
2017-04-29T12:41:40.050Z,969.1
2017-04-29T12:42:49.127Z,969.07
2017-04-29T12:43:58.807Z,969.13
2017-04-29T12:45:07.810Z,969.04
2017-04-29T12:46:16.879Z,969
2017-04-29T12:47:25.894Z,969.02
2017-04-29T12:48:34.973Z,969
2017-04-29T12:49:44.200Z,968.99
2017-04-29T12:50:53.886Z,968.99
2017-04-29T12:52:02.662Z,968.96
2017-04-29T12:53:11.433Z,969.01
2017-04-29T12:54:20.504Z,969
2017-04-29T12:55:29.583Z,968.97
2017-04-29T12:56:38.351Z,968.98
2017-04-29T12:57:47.081Z,969
2017-04-29T12:58:56.781Z,969.01
2017-04-29T13:00:05.562Z,969.01
2017-04-29T13:01:14.637Z,968.99
2017-04-29T13:02:23.712Z,969.01
2017-04-29T13:03:32.487Z,968.98
2017-04-29T13:04:41.557Z,969.01
2017-04-29T13:05:50.638Z,969.05
2017-04-29T13:07:00.010Z,969.04
2017-04-29T13:08:08.779Z,969.01
2017-04-29T13:09:17.860Z,969.05
2017-04-29T13:10:26.932Z,969.01
2017-04-29T13:11:35.692Z,969.02
2017-04-29T13:12:44.758Z,969
2017-04-29T13:13:53.825Z,969.03
2017-04-29T13:15:03.161Z,968.99
2017-04-29T13:16:12.220Z,969.03
2017-04-29T13:17:20.923Z,969.02
2017-04-29T13:18:30.224Z,969.02
2017-04-29T13:19:39.543Z,969
2017-04-29T13:20:48.924Z,968.98
2017-04-29T13:21:57.690Z,969
2017-04-29T13:23:06.701Z,968.99
2017-04-29T13:24:16.019Z,969
2017-04-29T13:25:25.402Z,968.98
2017-04-29T13:26:34.144Z,968.98
2017-04-29T13:27:43.146Z,969.01
2017-04-29T13:28:52.778Z,968.99
2017-04-29T13:30:02.454Z,969
2017-04-29T13:31:11.214Z,969
2017-04-29T13:32:19.917Z,969
2017-04-29T13:33:28.934Z,968.94
2017-04-29T13:34:38.006Z,968.95
2017-04-29T13:35:47.082Z,968.95
2017-04-29T13:36:55.830Z,968.93
2017-04-29T13:38:04.546Z,968.89
2017-04-29T13:39:13.932Z,968.89
2017-04-29T13:40:23.012Z,968.9
2017-04-29T13:41:31.783Z,968.93
2017-04-29T13:42:41.164Z,968.93
2017-04-29T13:43:50.839Z,968.89
2017-04-29T13:44:59.866Z,968.85
2017-04-29T13:46:09.243Z,968.85
2017-04-29T13:47:18.320Z,968.86
2017-04-29T13:48:27.681Z,968.86
2017-04-29T13:49:36.705Z,968.82
2017-04-29T13:50:46.086Z,968.86
2017-04-29T13:51:54.911Z,968.84
2017-04-29T13:53:03.679Z,968.83
2017-04-29T13:54:13.369Z,968.86
2017-04-29T13:55:23.051Z,968.85
2017-04-29T13:56:31.822Z,968.84
2017-04-29T13:57:40.588Z,968.87
2017-04-29T13:58:49.668Z,968.83
2017-04-29T13:59:58.745Z,968.82
2017-04-29T14:01:07.822Z,968.84
2017-04-29T14:02:16.889Z,968.86
2017-04-29T14:03:25.953Z,968.83
2017-04-29T14:04:35.648Z,968.79
2017-04-29T14:05:45.054Z,968.82
2017-04-29T14:06:54.073Z,968.81
2017-04-29T14:08:03.161Z,968.81
2017-04-29T14:09:12.853Z,968.84
2017-04-29T14:10:22.229Z,968.82
2017-04-29T14:11:31.851Z,968.8
2017-04-29T14:12:40.898Z,968.81
2017-04-29T14:13:49.921Z,968.79
2017-04-29T14:14:58.693Z,968.81
2017-04-29T14:16:08.014Z,968.79
2017-04-29T14:17:16.779Z,968.83
2017-04-29T14:18:25.838Z,968.78
2017-04-29T14:19:34.860Z,968.77
2017-04-29T14:20:44.573Z,968.79
2017-04-29T14:21:53.295Z,968.74
2017-04-29T14:23:02.067Z,968.78
2017-04-29T14:24:11.737Z,968.76
2017-04-29T14:25:20.459Z,968.74
2017-04-29T14:26:29.228Z,968.74